LIC0195 LEAL-LEBB
Flight info
| Callsign | LIC0195 |
|---|---|
| Flight time | 0h 56m |
| Altitude | 34000 |
| Route | ASTRO L150 RBO N867 DGO |
| Aircraft | A320/M-SDE3FGHIRWY/LB1 |
Departure
| Time | 2026-05-04 17:55 |
|---|---|
| Airport | Alicante-Elche Miguel Hernández Airport (LEAL) |
Arrival
| Time | 2026-05-04 18:52 |
|---|---|
| Airport | Bilbao Airport (LEBB) |
| Time | Latitude | Longitude | Altitude | Speed | Heading |
|---|---|---|---|---|---|
| 2026-05-04 17:35 | 38.28544 | -0.55346 | 96 ft | 0 kts | 11° |
| 2026-05-04 17:47 | 38.28543 | -0.55346 | 92 ft | 2 kts | 11° |
| 2026-05-04 17:47 | 38.28518 | -0.55352 | 92 ft | 4 kts | 10° |
| 2026-05-04 17:47 | 38.28492 | -0.55355 | 91 ft | 4 kts | 353° |
| 2026-05-04 17:48 | 38.28468 | -0.55346 | 90 ft | 4 kts | 316° |
| 2026-05-04 17:48 | 38.28458 | -0.55327 | 90 ft | 1 kts | 280° |
| 2026-05-04 17:48 | 38.28458 | -0.55323 | 90 ft | 1 kts | 280° |
| 2026-05-04 17:50 | 38.28460 | -0.55340 | 92 ft | 7 kts | 280° |
| 2026-05-04 17:50 | 38.28474 | -0.55440 | 97 ft | 14 kts | 280° |
| 2026-05-04 17:50 | 38.28490 | -0.55559 | 98 ft | 15 kts | 274° |
| 2026-05-04 17:51 | 38.28406 | -0.55610 | 98 ft | 16 kts | 181° |
| 2026-05-04 17:51 | 38.28378 | -0.55683 | 101 ft | 9 kts | 290° |
| 2026-05-04 17:51 | 38.28390 | -0.55776 | 102 ft | 12 kts | 277° |
| 2026-05-04 17:51 | 38.28406 | -0.55901 | 105 ft | 16 kts | 279° |
| 2026-05-04 17:52 | 38.28427 | -0.56063 | 107 ft | 23 kts | 279° |
| 2026-05-04 17:52 | 38.28457 | -0.56283 | 109 ft | 26 kts | 281° |
| 2026-05-04 17:52 | 38.28492 | -0.56506 | 116 ft | 25 kts | 280° |
| 2026-05-04 17:52 | 38.28522 | -0.56728 | 119 ft | 26 kts | 279° |
| 2026-05-04 17:53 | 38.28552 | -0.56940 | 130 ft | 23 kts | 279° |
| 2026-05-04 17:53 | 38.28579 | -0.57133 | 139 ft | 21 kts | 281° |
| 2026-05-04 17:53 | 38.28605 | -0.57311 | 147 ft | 20 kts | 280° |
| 2026-05-04 17:53 | 38.28623 | -0.57459 | 151 ft | 14 kts | 256° |
| 2026-05-04 17:54 | 38.28542 | -0.57512 | 154 ft | 14 kts | 189° |
| 2026-05-04 17:54 | 38.28462 | -0.57506 | 154 ft | 9 kts | 140° |
| 2026-05-04 17:54 | 38.28447 | -0.57453 | 152 ft | 0 kts | 99° |
| 2026-05-04 17:55 | 38.28405 | -0.57161 | 140 ft | 73 kts | 99° |
| 2026-05-04 17:55 | 38.28280 | -0.56246 | 110 ft | 132 kts | 99° |
| 2026-05-04 17:55 | 38.28057 | -0.54904 | 171 ft | 171 kts | 105° |
| 2026-05-04 17:55 | 38.27965 | -0.53402 | 832 ft | 171 kts | 92° |
| 2026-05-04 17:56 | 38.27822 | -0.51920 | 1589 ft | 168 kts | 104° |
| 2026-05-04 17:56 | 38.27548 | -0.50445 | 2145 ft | 179 kts | 105° |
| 2026-05-04 17:56 | 38.27227 | -0.48812 | 2473 ft | 202 kts | 106° |
| 2026-05-04 17:56 | 38.26875 | -0.46961 | 2804 ft | 228 kts | 105° |
| 2026-05-04 17:57 | 38.26747 | -0.44847 | 3232 ft | 256 kts | 81° |
| 2026-05-04 17:57 | 38.27565 | -0.42767 | 3820 ft | 274 kts | 44° |
| 2026-05-04 17:57 | 38.29217 | -0.41597 | 4658 ft | 276 kts | 7° |
| 2026-05-04 17:57 | 38.31083 | -0.41803 | 5597 ft | 269 kts | 333° |
| 2026-05-04 17:58 | 38.32498 | -0.43256 | 6579 ft | 262 kts | 304° |
| 2026-05-04 17:58 | 38.33556 | -0.45139 | 7532 ft | 263 kts | 302° |
| 2026-05-04 17:58 | 38.34616 | -0.47049 | 8444 ft | 266 kts | 302° |
| 2026-05-04 17:58 | 38.35692 | -0.48984 | 9358 ft | 269 kts | 301° |
| 2026-05-04 17:59 | 38.36945 | -0.50796 | 10146 ft | 281 kts | 315° |
| 2026-05-04 17:59 | 38.38520 | -0.52448 | 10439 ft | 305 kts | 316° |
| 2026-05-04 17:59 | 38.42039 | -0.55972 | 11432 ft | 331 kts | 317° |
| 2026-05-04 18:00 | 38.43848 | -0.57749 | 12143 ft | 335 kts | 317° |
| 2026-05-04 18:00 | 38.45704 | -0.59576 | 12885 ft | 339 kts | 316° |
| 2026-05-04 18:00 | 38.47576 | -0.61429 | 13649 ft | 342 kts | 316° |
| 2026-05-04 18:00 | 38.49461 | -0.63311 | 14306 ft | 346 kts | 315° |
| 2026-05-04 18:01 | 38.51357 | -0.65220 | 14956 ft | 349 kts | 315° |
| 2026-05-04 18:01 | 38.53270 | -0.67149 | 15570 ft | 352 kts | 315° |
| 2026-05-04 18:01 | 38.55206 | -0.69095 | 16204 ft | 356 kts | 315° |
| 2026-05-04 18:02 | 38.58468 | -0.72367 | 17252 ft | 362 kts | 315° |
| 2026-05-04 18:02 | 38.60477 | -0.74390 | 17888 ft | 365 kts | 315° |
| 2026-05-04 18:02 | 38.62482 | -0.76412 | 18495 ft | 368 kts | 315° |
| 2026-05-04 18:02 | 38.64472 | -0.78421 | 19116 ft | 370 kts | 314° |
| 2026-05-04 18:03 | 38.66496 | -0.80469 | 19721 ft | 372 kts | 314° |
| 2026-05-04 18:03 | 38.68535 | -0.82535 | 20293 ft | 375 kts | 314° |
| 2026-05-04 18:03 | 38.70592 | -0.84618 | 20832 ft | 379 kts | 314° |
| 2026-05-04 18:03 | 38.72670 | -0.86718 | 21352 ft | 382 kts | 314° |
| 2026-05-04 18:04 | 38.74768 | -0.88840 | 21868 ft | 386 kts | 314° |
| 2026-05-04 18:04 | 38.76881 | -0.90976 | 22362 ft | 389 kts | 314° |
| 2026-05-04 18:04 | 38.81161 | -0.95310 | 23359 ft | 395 kts | 314° |
| 2026-05-04 18:05 | 38.83322 | -0.97506 | 23783 ft | 398 kts | 314° |
| 2026-05-04 18:05 | 38.85502 | -0.99722 | 24219 ft | 401 kts | 314° |
| 2026-05-04 18:05 | 38.87693 | -1.01947 | 24658 ft | 403 kts | 314° |
| 2026-05-04 18:05 | 38.89897 | -1.04187 | 25136 ft | 405 kts | 314° |
| 2026-05-04 18:06 | 38.94333 | -1.08701 | 26005 ft | 409 kts | 314° |
| 2026-05-04 18:06 | 38.96569 | -1.10981 | 26426 ft | 411 kts | 314° |
| 2026-05-04 18:06 | 38.98812 | -1.13275 | 26823 ft | 413 kts | 314° |
| 2026-05-04 18:07 | 39.01065 | -1.15583 | 27273 ft | 415 kts | 314° |
| 2026-05-04 18:07 | 39.03322 | -1.17896 | 27726 ft | 416 kts | 314° |
| 2026-05-04 18:07 | 39.05591 | -1.20220 | 28149 ft | 418 kts | 314° |
| 2026-05-04 18:07 | 39.07873 | -1.22554 | 28558 ft | 420 kts | 314° |
| 2026-05-04 18:08 | 39.10171 | -1.24905 | 28978 ft | 423 kts | 314° |
| 2026-05-04 18:08 | 39.12475 | -1.27267 | 29393 ft | 425 kts | 314° |
| 2026-05-04 18:08 | 39.14766 | -1.29623 | 29745 ft | 428 kts | 314° |
| 2026-05-04 18:08 | 39.17101 | -1.32024 | 30100 ft | 431 kts | 314° |
| 2026-05-04 18:09 | 39.21808 | -1.36866 | 30752 ft | 435 kts | 314° |
| 2026-05-04 18:09 | 39.26695 | -1.41492 | 31661 ft | 445 kts | 326° |
| 2026-05-04 18:10 | 39.29619 | -1.42943 | 32101 ft | 452 kts | 333° |
| 2026-05-04 18:10 | 39.32601 | -1.44241 | 32557 ft | 452 kts | 334° |
| 2026-05-04 18:10 | 39.35585 | -1.45512 | 33067 ft | 451 kts | 334° |
| 2026-05-04 18:10 | 39.38561 | -1.46773 | 33533 ft | 450 kts | 334° |
| 2026-05-04 18:11 | 39.41535 | -1.48039 | 33884 ft | 450 kts | 334° |
| 2026-05-04 18:11 | 39.44506 | -1.49314 | 33949 ft | 448 kts | 334° |
| 2026-05-04 18:11 | 39.50399 | -1.51863 | 33953 ft | 446 kts | 334° |
| 2026-05-04 18:12 | 39.56268 | -1.54400 | 33956 ft | 443 kts | 333° |
| 2026-05-04 18:12 | 39.62112 | -1.56931 | 33966 ft | 442 kts | 334° |
| 2026-05-04 18:13 | 39.67907 | -1.59446 | 33968 ft | 442 kts | 334° |
| 2026-05-04 18:14 | 39.76657 | -1.63251 | 33973 ft | 442 kts | 334° |
| 2026-05-04 18:14 | 39.82491 | -1.65802 | 33999 ft | 442 kts | 334° |
| 2026-05-04 18:15 | 39.94168 | -1.70913 | 33995 ft | 443 kts | 334° |
| 2026-05-04 18:16 | 40.00013 | -1.73480 | 33988 ft | 443 kts | 334° |
| 2026-05-04 18:16 | 40.05857 | -1.76050 | 33999 ft | 443 kts | 334° |
| 2026-05-04 18:17 | 40.14628 | -1.79924 | 33995 ft | 444 kts | 334° |
| 2026-05-04 18:18 | 40.23387 | -1.83865 | 33989 ft | 444 kts | 333° |
| 2026-05-04 18:18 | 40.29227 | -1.86510 | 34012 ft | 444 kts | 333° |
| 2026-05-04 18:19 | 40.38005 | -1.90473 | 33997 ft | 445 kts | 333° |
| 2026-05-04 18:19 | 40.43862 | -1.93118 | 34001 ft | 445 kts | 334° |
| 2026-05-04 18:20 | 40.49711 | -1.95764 | 34014 ft | 445 kts | 334° |
| 2026-05-04 18:20 | 40.55524 | -1.98400 | 34002 ft | 445 kts | 334° |
| 2026-05-04 18:21 | 40.61370 | -2.01061 | 33990 ft | 445 kts | 334° |
| 2026-05-04 18:21 | 40.67219 | -2.03732 | 33986 ft | 445 kts | 334° |
| 2026-05-04 18:22 | 40.73071 | -2.06401 | 33992 ft | 445 kts | 334° |
| 2026-05-04 18:22 | 40.78919 | -2.09075 | 33990 ft | 445 kts | 334° |
| 2026-05-04 18:23 | 40.84762 | -2.11750 | 33987 ft | 444 kts | 334° |
| 2026-05-04 18:23 | 40.90601 | -2.14429 | 34008 ft | 444 kts | 334° |
| 2026-05-04 18:24 | 40.96453 | -2.17117 | 33982 ft | 446 kts | 334° |
| 2026-05-04 18:24 | 41.02312 | -2.19811 | 33976 ft | 446 kts | 334° |
| 2026-05-04 18:25 | 41.08175 | -2.22521 | 33975 ft | 446 kts | 334° |
| 2026-05-04 18:25 | 41.14043 | -2.25239 | 33996 ft | 447 kts | 334° |
| 2026-05-04 18:26 | 41.19922 | -2.27959 | 33991 ft | 448 kts | 334° |
| 2026-05-04 18:26 | 41.25801 | -2.30695 | 34001 ft | 447 kts | 334° |
| 2026-05-04 18:27 | 41.31666 | -2.33430 | 33992 ft | 447 kts | 334° |
| 2026-05-04 18:27 | 41.37496 | -2.36143 | 34002 ft | 447 kts | 334° |
| 2026-05-04 18:28 | 41.43371 | -2.38885 | 33992 ft | 448 kts | 334° |
| 2026-05-04 18:28 | 41.49251 | -2.41637 | 33988 ft | 448 kts | 334° |
| 2026-05-04 18:29 | 41.55138 | -2.44391 | 34012 ft | 448 kts | 334° |
| 2026-05-04 18:29 | 41.61023 | -2.47156 | 33998 ft | 448 kts | 334° |
| 2026-05-04 18:30 | 41.69855 | -2.51316 | 33990 ft | 449 kts | 334° |
| 2026-05-04 18:31 | 41.75747 | -2.54095 | 34003 ft | 449 kts | 334° |
| 2026-05-04 18:31 | 41.81638 | -2.56885 | 33994 ft | 449 kts | 334° |
| 2026-05-04 18:32 | 41.87535 | -2.59681 | 33991 ft | 449 kts | 334° |
| 2026-05-04 18:32 | 41.90479 | -2.61098 | 33681 ft | 449 kts | 334° |
| 2026-05-04 18:32 | 41.93415 | -2.62529 | 33414 ft | 449 kts | 334° |
| 2026-05-04 18:32 | 41.96311 | -2.63950 | 33173 ft | 449 kts | 334° |
| 2026-05-04 18:33 | 41.99250 | -2.65392 | 32903 ft | 450 kts | 334° |
| 2026-05-04 18:33 | 42.02195 | -2.66838 | 32646 ft | 451 kts | 334° |
| 2026-05-04 18:33 | 42.05143 | -2.68285 | 32411 ft | 451 kts | 334° |
| 2026-05-04 18:33 | 42.08085 | -2.69726 | 32033 ft | 448 kts | 334° |
| 2026-05-04 18:34 | 42.11007 | -2.71153 | 31441 ft | 445 kts | 334° |
| 2026-05-04 18:34 | 42.13912 | -2.72571 | 30859 ft | 443 kts | 333° |
| 2026-05-04 18:34 | 42.16791 | -2.73979 | 30315 ft | 439 kts | 334° |
| 2026-05-04 18:34 | 42.19657 | -2.75385 | 29651 ft | 437 kts | 333° |
| 2026-05-04 18:35 | 42.22499 | -2.76776 | 29039 ft | 434 kts | 335° |
| 2026-05-04 18:35 | 42.25501 | -2.77660 | 27796 ft | 454 kts | 351° |
| 2026-05-04 18:35 | 42.28673 | -2.77316 | 26507 ft | 462 kts | 11° |
| 2026-05-04 18:35 | 42.31629 | -2.75654 | 25440 ft | 461 kts | 30° |
| 2026-05-04 18:36 | 42.34229 | -2.73172 | 24428 ft | 454 kts | 34° |
| 2026-05-04 18:36 | 42.36735 | -2.70692 | 23863 ft | 436 kts | 34° |
| 2026-05-04 18:36 | 42.39262 | -2.68525 | 23427 ft | 427 kts | 27° |
| 2026-05-04 18:36 | 42.41847 | -2.66578 | 22896 ft | 423 kts | 27° |
| 2026-05-04 18:37 | 42.44399 | -2.64659 | 22460 ft | 417 kts | 27° |
| 2026-05-04 18:37 | 42.46924 | -2.62764 | 21980 ft | 413 kts | 27° |
| 2026-05-04 18:37 | 42.49420 | -2.60890 | 21508 ft | 409 kts | 27° |
| 2026-05-04 18:37 | 42.51900 | -2.59029 | 21021 ft | 405 kts | 27° |
| 2026-05-04 18:38 | 42.54355 | -2.57187 | 20538 ft | 402 kts | 27° |
| 2026-05-04 18:38 | 42.56789 | -2.55350 | 20030 ft | 399 kts | 27° |
| 2026-05-04 18:38 | 42.59200 | -2.53520 | 19545 ft | 396 kts | 27° |
| 2026-05-04 18:38 | 42.61598 | -2.51697 | 19010 ft | 394 kts | 27° |
| 2026-05-04 18:39 | 42.63981 | -2.49885 | 18510 ft | 391 kts | 28° |
| 2026-05-04 18:39 | 42.66349 | -2.48084 | 17949 ft | 389 kts | 28° |
| 2026-05-04 18:39 | 42.68702 | -2.46296 | 17435 ft | 385 kts | 28° |
| 2026-05-04 18:39 | 42.71028 | -2.44524 | 16939 ft | 382 kts | 28° |
| 2026-05-04 18:40 | 42.73310 | -2.42870 | 16703 ft | 369 kts | 20° |
| 2026-05-04 18:40 | 42.75722 | -2.41977 | 16421 ft | 351 kts | 3° |
| 2026-05-04 18:40 | 42.78093 | -2.41992 | 16019 ft | 333 kts | 353° |
| 2026-05-04 18:40 | 42.80367 | -2.42189 | 15525 ft | 324 kts | 353° |
| 2026-05-04 18:41 | 42.82594 | -2.42379 | 14979 ft | 318 kts | 353° |
| 2026-05-04 18:41 | 42.84781 | -2.42566 | 14442 ft | 312 kts | 353° |
| 2026-05-04 18:41 | 42.86935 | -2.42751 | 13914 ft | 308 kts | 353° |
| 2026-05-04 18:41 | 42.89055 | -2.42933 | 13328 ft | 304 kts | 353° |
| 2026-05-04 18:42 | 42.91149 | -2.43113 | 12751 ft | 300 kts | 353° |
| 2026-05-04 18:42 | 42.93217 | -2.43289 | 12176 ft | 296 kts | 353° |
| 2026-05-04 18:42 | 42.95258 | -2.43461 | 11613 ft | 292 kts | 354° |
| 2026-05-04 18:42 | 42.97275 | -2.43630 | 11061 ft | 289 kts | 354° |
| 2026-05-04 18:43 | 42.99275 | -2.43782 | 10518 ft | 286 kts | 354° |
| 2026-05-04 18:43 | 43.01254 | -2.43891 | 9983 ft | 283 kts | 355° |
| 2026-05-04 18:43 | 43.03208 | -2.43981 | 9403 ft | 279 kts | 355° |
| 2026-05-04 18:43 | 43.05141 | -2.44067 | 8741 ft | 278 kts | 356° |
| 2026-05-04 18:44 | 43.07040 | -2.44153 | 8282 ft | 271 kts | 356° |
| 2026-05-04 18:44 | 43.07683 | -2.44183 | 8029 ft | 277 kts | 356° |
| 2026-05-04 18:44 | 43.10902 | -2.44551 | 7299 ft | 270 kts | 343° |
| 2026-05-04 18:44 | 43.12536 | -2.45590 | 7162 ft | 250 kts | 324° |
| 2026-05-04 18:45 | 43.13755 | -2.47150 | 7050 ft | 232 kts | 308° |
| 2026-05-04 18:45 | 43.14562 | -2.49002 | 6944 ft | 226 kts | 298° |
| 2026-05-04 18:45 | 43.15269 | -2.50904 | 6839 ft | 223 kts | 298° |
| 2026-05-04 18:45 | 43.15978 | -2.52805 | 6747 ft | 225 kts | 297° |
| 2026-05-04 18:46 | 43.16691 | -2.54723 | 6561 ft | 226 kts | 298° |
| 2026-05-04 18:46 | 43.17403 | -2.56638 | 6258 ft | 226 kts | 298° |
| 2026-05-04 18:46 | 43.18118 | -2.58563 | 5912 ft | 228 kts | 298° |
| 2026-05-04 18:46 | 43.18840 | -2.60511 | 5552 ft | 227 kts | 298° |
| 2026-05-04 18:47 | 43.19544 | -2.62409 | 5223 ft | 220 kts | 299° |
| 2026-05-04 18:47 | 43.20229 | -2.64257 | 4881 ft | 214 kts | 298° |
| 2026-05-04 18:47 | 43.20894 | -2.66053 | 4556 ft | 209 kts | 298° |
| 2026-05-04 18:47 | 43.21542 | -2.67805 | 4232 ft | 203 kts | 298° |
| 2026-05-04 18:48 | 43.22169 | -2.69500 | 3922 ft | 197 kts | 298° |
| 2026-05-04 18:48 | 43.22787 | -2.71172 | 3626 ft | 197 kts | 298° |
| 2026-05-04 18:48 | 43.23400 | -2.72829 | 3329 ft | 196 kts | 298° |
| 2026-05-04 18:48 | 43.24002 | -2.74461 | 3033 ft | 188 kts | 298° |
| 2026-05-04 18:49 | 43.24591 | -2.76057 | 2747 ft | 187 kts | 298° |
| 2026-05-04 18:49 | 43.25173 | -2.77637 | 2482 ft | 181 kts | 298° |
| 2026-05-04 18:49 | 43.25727 | -2.79139 | 2190 ft | 172 kts | 298° |
| 2026-05-04 18:49 | 43.26254 | -2.80569 | 1916 ft | 163 kts | 298° |
| 2026-05-04 18:50 | 43.26750 | -2.81918 | 1684 ft | 153 kts | 297° |
| 2026-05-04 18:50 | 43.27209 | -2.83165 | 1450 ft | 141 kts | 297° |
| 2026-05-04 18:50 | 43.27641 | -2.84339 | 1229 ft | 136 kts | 297° |
| 2026-05-04 18:50 | 43.28062 | -2.85482 | 1023 ft | 133 kts | 297° |
| 2026-05-04 18:51 | 43.28476 | -2.86608 | 823 ft | 132 kts | 297° |
| 2026-05-04 18:51 | 43.28881 | -2.87728 | 625 ft | 131 kts | 295° |
| 2026-05-04 18:51 | 43.29279 | -2.88832 | 409 ft | 128 kts | 298° |
| 2026-05-04 18:51 | 43.29689 | -2.89919 | 212 ft | 129 kts | 297° |
| 2026-05-04 18:52 | 43.30071 | -2.90943 | 125 ft | 107 kts | 297° |
| 2026-05-04 18:52 | 43.30321 | -2.91633 | 126 ft | 43 kts | 295° |
| 2026-05-04 18:52 | 43.30452 | -2.91913 | 124 ft | 31 kts | 317° |
| 2026-05-04 18:52 | 43.30606 | -2.92033 | 124 ft | 19 kts | 14° |
| 2026-05-04 18:53 | 43.30595 | -2.91888 | 124 ft | 21 kts | 113° |
| 2026-05-04 18:53 | 43.30527 | -2.91694 | 124 ft | 24 kts | 116° |
| 2026-05-04 18:53 | 43.30451 | -2.91479 | 125 ft | 26 kts | 116° |
| 2026-05-04 18:53 | 43.30394 | -2.91325 | 125 ft | 28 kts | 117° |
| 2026-05-04 18:54 | 43.30315 | -2.91135 | 128 ft | 19 kts | 123° |
| 2026-05-04 18:54 | 43.30343 | -2.91009 | 125 ft | 16 kts | 32° |
| 2026-05-04 18:54 | 43.30403 | -2.90933 | 126 ft | 9 kts | 75° |
| 2026-05-04 18:54 | 43.30407 | -2.90851 | 127 ft | 9 kts | 89° |
| 2026-05-04 18:55 | 43.30414 | -2.90772 | 123 ft | 3 kts | 55° |
| 2026-05-04 18:55 | 43.30461 | -2.90740 | 125 ft | 0 kts | 27° |